Time;durP1;ratioP1;P1;durP2;ratioP2;P2;SDS_P1;SDS_P2;PMS_P1;PMS_P2;Temp;Humidity;BMP_temperature;BMP_pressure;BME280_temperature;BME280_humidity;BME280_pressure;Samples;Min_cycle;Max_cycle;Signal;HPM_P1;HPM_P2
2022/08/15 00:01:10;;;;;;;;;;;;;;;;;;5119532;27;20428;-87
2022/08/15 00:03:37;;;;;;;;;;;;;;;;;;5119959;27;19915;-87
2022/08/15 00:06:03;;;;;;;;;;;;;;;;;;5120007;27;19942;-87
2022/08/15 00:08:29;;;;;;;;;;;;;;;;;;5138401;27;19915;-87
2022/08/15 00:10:56;;;;;;;;;;;;;;;;;;5138689;27;19922;-87
2022/08/15 00:13:23;;;;;;;;;;;;;;;;;;5103083;27;20234;-86
2022/08/15 00:15:49;;;;;;;;;;;;;;;;;;5134097;27;19903;-87
2022/08/15 00:18:14;;;;;;;;;;;;;;;;;;5103484;27;20397;-87
2022/08/15 00:20:40;;;;;;;;;;;;;;;;;;5138188;27;19915;-88
2022/08/15 00:23:08;;;;;;;;;;;;;;;;;;5119792;27;19915;-88
2022/08/15 00:25:37;;;;;;;;;;;;;;;;;;5138095;27;19922;-88
2022/08/15 00:28:03;;;;;;;;;;;;;;;;;;5120025;27;19920;-88
2022/08/15 00:30:28;;;;;;;;;;;;;;;;;;5119375;27;19922;-88
2022/08/15 00:32:55;;;;;;;;;;;;;;;;;;5138021;27;19955;-88
2022/08/15 00:35:36;;;;;;;;;;;;;;;;;;5128744;27;19920;-89
2022/08/15 00:38:12;;;;;;;;;;;;;;;;;;5145998;27;19957;-87
2022/08/15 00:43:22;;;;;;;;;;;;;;;;;;5137527;27;19922;-88
2022/08/15 00:45:47;;;;;;;;;;;;;;;;;;5137614;27;19983;-88
2022/08/15 00:50:57;;;;;;;;;;;;;;;;;;5137577;27;19922;-88
2022/08/15 00:53:22;;;;;;;;;;;;;;;;;;5137675;27;19916;-88
2022/08/15 00:55:47;;;;;;;;;;;;;;;;;;5146503;27;19926;-86
2022/08/15 00:58:13;;;;;;;;;;;;;;;;;;5129362;27;19919;-89
2022/08/15 01:00:39;;;;;;;;;;;;;;;;;;5119065;27;19915;-88
2022/08/15 01:03:07;;;;;;;;;;;;;;;;;;5137390;27;19916;-86
2022/08/15 01:05:32;;;;;;;;;;;;;;;;;;5119619;27;20010;-87
2022/08/15 01:07:57;;;;;;;;;;;;;;;;;;5118935;27;19951;-88
2022/08/15 01:10:23;;;;;;;;;;;;;;;;;;5118991;27;20197;-87
2022/08/15 01:12:48;;;;;;;;;;;;;;;;;;5135848;27;20264;-89
2022/08/15 01:15:14;;;;;;;;;;;;;;;;;;5121237;27;19900;-88
2022/08/15 01:17:40;;;;;;;;;;;;;;;;;;5129608;27;19920;-88
2022/08/15 01:20:09;;;;;;;;;;;;;;;;;;5119663;27;20002;-89
2022/08/15 01:23:11;;;;;;;;;;;;;;;;;;5119165;27;19951;-87
2022/08/15 01:25:40;;;;;;;;;;;;;;;;;;5033943;28;20048;-87
2022/08/15 01:28:07;;;;;;;;;;;;;;;;;;5100768;27;19916;-89
2022/08/15 01:30:37;;;;;;;;;;;;;;;;;;5136428;27;20325;-87
2022/08/15 01:33:02;;;;;;;;;;;;;;;;;;5137060;27;19919;-88
2022/08/15 01:35:28;;;;;;;;;;;;;;;;;;5121885;27;19982;-84
2022/08/15 01:37:53;;;;;;;;;;;;;;;;;;5130913;27;20014;-89
2022/08/15 01:40:23;;;;;;;;;;;;;;;;;;5118767;27;19972;-89
2022/08/15 01:42:48;;;;;;;;;;;;;;;;;;5118124;27;19915;-87
2022/08/15 01:45:16;;;;;;;;;;;;;;;;;;5136272;27;19916;-88
2022/08/15 01:47:48;;;;;;;;;;;;;;;;;;5136509;27;19915;-87
2022/08/15 01:50:15;;;;;;;;;;;;;;;;;;5118208;27;19923;-87
2022/08/15 01:52:43;;;;;;;;;;;;;;;;;;5136455;27;19915;-88
2022/08/15 01:57:53;;;;;;;;;;;;;;;;;;5131231;27;19927;-88
2022/08/15 02:00:18;;;;;;;;;;;;;;;;;;5136783;27;19915;-89
2022/08/15 02:02:44;;;;;;;;;;;;;;;;;;5136019;27;19911;-88
2022/08/15 02:05:09;;;;;;;;;;;;;;;;;;5136301;27;19951;-88
2022/08/15 02:07:34;;;;;;;;;;;;;;;;;;5136601;27;20306;-88
2022/08/15 02:10:00;;;;;;;;;;;;;;;;;;5117569;27;19923;-88
2022/08/15 02:12:26;;;;;;;;;;;;;;;;;;5135950;28;20362;-89
2022/08/15 02:14:52;;;;;;;;;;;;;;;;;;5117581;28;20328;-87
2022/08/15 02:17:17;;;;;;;;;;;;;;;;;;5127106;28;19927;-87
2022/08/15 02:19:44;;;;;;;;;;;;;;;;;;5139486;28;19920;-88
2022/08/15 02:22:09;;;;;;;;;;;;;;;;;;5117802;28;19955;-88
2022/08/15 02:24:35;;;;;;;;;;;;;;;;;;5102089;27;19977;-88
2022/08/15 02:27:00;;;;;;;;;;;;;;;;;;5121942;27;20026;-87
2022/08/15 02:29:26;;;;;;;;;;;;;;;;;;5140441;27;19915;-88
2022/08/15 02:31:52;;;;;;;;;;;;;;;;;;5121951;27;20222;-87
2022/08/15 02:34:18;;;;;;;;;;;;;;;;;;5121937;27;19922;-87
2022/08/15 02:36:44;;;;;;;;;;;;;;;;;;5144811;27;19899;-88
2022/08/15 02:39:09;;;;;;;;;;;;;;;;;;5123779;27;20316;-88
2022/08/15 02:41:41;;;;;;;;;;;;;;;;;;5121667;27;19933;-89
2022/08/15 02:44:06;;;;;;;;;;;;;;;;;;5139902;27;19916;-87
2022/08/15 02:46:32;;;;;;;;;;;;;;;;;;5121941;27;19955;-86
2022/08/15 02:48:58;;;;;;;;;;;;;;;;;;5139699;27;19915;-87
2022/08/15 02:51:23;;;;;;;;;;;;;;;;;;5139998;27;19972;-87
2022/08/15 02:53:49;;;;;;;;;;;;;;;;;;5139710;27;19912;-88
2022/08/15 02:56:16;;;;;;;;;;;;;;;;;;5146007;27;20431;-88
2022/08/15 02:58:41;;;;;;;;;;;;;;;;;;5153309;27;19942;-87
2022/08/15 03:01:10;;;;;;;;;;;;;;;;;;5121594;27;20341;-87
2022/08/15 03:03:38;;;;;;;;;;;;;;;;;;5139625;27;20384;-88
2022/08/15 03:06:03;;;;;;;;;;;;;;;;;;5104713;27;19920;-87
2022/08/15 03:08:28;;;;;;;;;;;;;;;;;;5135826;27;19923;-88
2022/08/15 03:10:54;;;;;;;;;;;;;;;;;;5150592;27;19937;-88
2022/08/15 03:13:19;;;;;;;;;;;;;;;;;;5130786;27;19937;-87
2022/08/15 03:15:52;;;;;;;;;;;;;;;;;;5122921;27;19964;-87
2022/08/15 03:18:19;;;;;;;;;;;;;;;;;;5129521;27;19916;-87
2022/08/15 03:20:46;;;;;;;;;;;;;;;;;;5126702;27;20006;-89
2022/08/15 03:23:11;;;;;;;;;;;;;;;;;;5121110;27;19967;-88
2022/08/15 03:25:38;;;;;;;;;;;;;;;;;;5139361;27;19939;-88
2022/08/15 03:28:03;;;;;;;;;;;;;;;;;;5120861;27;19919;-88
2022/08/15 03:30:29;;;;;;;;;;;;;;;;;;5121072;27;20015;-87
2022/08/15 03:32:55;;;;;;;;;;;;;;;;;;5138975;27;19916;-87
2022/08/15 03:35:21;;;;;;;;;;;;;;;;;;5119851;28;19916;-88
2022/08/15 03:37:47;;;;;;;;;;;;;;;;;;5143830;27;19915;-87
2022/08/15 03:40:12;;;;;;;;;;;;;;;;;;5131368;27;19953;-86
2022/08/15 03:42:38;;;;;;;;;;;;;;;;;;5103845;27;19911;-89
2022/08/15 03:45:04;;;;;;;;;;;;;;;;;;5138506;27;19915;-86
2022/08/15 03:47:30;;;;;;;;;;;;;;;;;;5139047;27;20002;-88
2022/08/15 03:49:55;;;;;;;;;;;;;;;;;;5120201;27;20039;-87
2022/08/15 03:52:21;;;;;;;;;;;;;;;;;;5120728;27;19916;-87
2022/08/15 03:54:46;;;;;;;;;;;;;;;;;;5138176;27;19919;-88
2022/08/15 03:57:12;;;;;;;;;;;;;;;;;;5139768;27;20006;-87
2022/08/15 03:59:37;;;;;;;;;;;;;;;;;;5130173;27;20003;-85
2022/08/15 04:02:05;;;;;;;;;;;;;;;;;;5144007;27;19919;-87
2022/08/15 04:04:31;;;;;;;;;;;;;;;;;;5138268;27;19911;-87
2022/08/15 04:06:56;;;;;;;;;;;;;;;;;;5138892;27;19915;-87
2022/08/15 04:09:22;;;;;;;;;;;;;;;;;;5138356;27;19915;-88
2022/08/15 04:11:48;;;;;;;;;;;;;;;;;;5122653;27;19964;-88
2022/08/15 04:14:14;;;;;;;;;;;;;;;;;;5138363;27;19912;-88
2022/08/15 04:16:39;;;;;;;;;;;;;;;;;;5138250;27;20321;-88
2022/08/15 04:19:04;;;;;;;;;;;;;;;;;;5151864;27;19962;-88
2022/08/15 04:21:30;;;;;;;;;;;;;;;;;;5143866;27;19922;-88
2022/08/15 04:23:55;;;;;;;;;;;;;;;;;;5137786;27;19962;-87
2022/08/15 04:26:20;;;;;;;;;;;;;;;;;;5138006;27;19919;-87
2022/08/15 04:28:46;;;;;;;;;;;;;;;;;;5138032;27;19960;-87
2022/08/15 04:31:15;;;;;;;;;;;;;;;;;;5138139;27;19915;-86
2022/08/15 04:33:41;;;;;;;;;;;;;;;;;;5120445;27;19950;-86
2022/08/15 04:36:09;;;;;;;;;;;;;;;;;;5119704;27;20387;-87
2022/08/15 04:38:35;;;;;;;;;;;;;;;;;;5122712;27;19923;-86
2022/08/15 04:41:01;;;;;;;;;;;;;;;;;;5127349;27;19916;-87
2022/08/15 04:43:27;;;;;;;;;;;;;;;;;;5119573;27;20324;-86
2022/08/15 04:45:52;;;;;;;;;;;;;;;;;;5137538;27;19912;-87
2022/08/15 04:48:17;;;;;;;;;;;;;;;;;;5137150;27;19919;-87
2022/08/15 04:50:44;;;;;;;;;;;;;;;;;;5118952;27;19915;-88
2022/08/15 04:53:09;;;;;;;;;;;;;;;;;;5118572;27;20014;-87
2022/08/15 04:55:36;;;;;;;;;;;;;;;;;;5118908;27;19926;-87
2022/08/15 04:58:02;;;;;;;;;;;;;;;;;;5119001;27;19916;-87
2022/08/15 05:00:28;;;;;;;;;;;;;;;;;;5119198;27;19998;-87
2022/08/15 05:02:57;;;;;;;;;;;;;;;;;;5104219;27;20248;-87
2022/08/15 05:05:23;;;;;;;;;;;;;;;;;;5136819;27;19916;-86
2022/08/15 05:07:48;;;;;;;;;;;;;;;;;;5136431;27;19972;-87
2022/08/15 05:10:14;;;;;;;;;;;;;;;;;;5137015;27;19915;-87
2022/08/15 05:12:40;;;;;;;;;;;;;;;;;;5118886;27;20390;-86
2022/08/15 05:15:06;;;;;;;;;;;;;;;;;;5136636;27;19919;-87
2022/08/15 05:17:31;;;;;;;;;;;;;;;;;;5136886;27;19915;-86
2022/08/15 05:19:57;;;;;;;;;;;;;;;;;;5118956;27;20226;-86
2022/08/15 05:22:22;;;;;;;;;;;;;;;;;;5140742;27;19916;-88
2022/08/15 05:24:47;;;;;;;;;;;;;;;;;;5136781;27;20321;-87
2022/08/15 05:27:12;;;;;;;;;;;;;;;;;;5136600;27;20360;-88
2022/08/15 05:29:38;;;;;;;;;;;;;;;;;;5118435;27;20276;-88
2022/08/15 05:32:05;;;;;;;;;;;;;;;;;;5136352;27;19915;-89
2022/08/15 05:34:31;;;;;;;;;;;;;;;;;;5118253;27;19996;-88
2022/08/15 05:36:56;;;;;;;;;;;;;;;;;;5136111;27;19963;-88
2022/08/15 05:39:24;;;;;;;;;;;;;;;;;;5137607;27;19916;-88
2022/08/15 05:41:50;;;;;;;;;;;;;;;;;;5127426;27;19920;-87
2022/08/15 05:44:18;;;;;;;;;;;;;;;;;;5138003;27;20236;-88
2022/08/15 05:46:44;;;;;;;;;;;;;;;;;;5136424;27;20234;-89
2022/08/15 05:49:16;;;;;;;;;;;;;;;;;;5136417;27;19915;-88
2022/08/15 05:51:46;;;;;;;;;;;;;;;;;;5136410;27;20393;-88
2022/08/15 05:54:17;;;;;;;;;;;;;;;;;;5118334;27;19916;-87
2022/08/15 05:56:50;;;;;;;;;;;;;;;;;;5135955;27;19926;-88
2022/08/15 05:59:16;;;;;;;;;;;;;;;;;;5118991;27;19916;-88
2022/08/15 06:01:49;;;;;;;;;;;;;;;;;;5119546;27;19958;-88
2022/08/15 06:04:34;;;;;;;;;;;;;;;;;;5102504;27;19972;-89
2022/08/15 06:06:59;;;;;;;;;;;;;;;;;;5136181;27;19912;-86
2022/08/15 06:09:43;;;;;;;;;;;;;;;;;;5118604;28;19938;-85
2022/08/15 06:12:25;;;;;;;;;;;;;;;;;;5117925;28;19919;-86
2022/08/15 06:14:50;;;;;;;;;;;;;;;;;;5137315;28;19938;-87
2022/08/15 06:17:28;;;;;;;;;;;;;;;;;;5117328;28;20325;-85
2022/08/15 06:20:00;;;;;;;;;;;;;;;;;;5120022;28;19968;-86
2022/08/15 06:22:57;;;;;;;;;;;;;;;;;;5121255;28;19951;-86
2022/08/15 06:25:29;;;;;;;;;;;;;;;;;;5081652;28;19921;-87
2022/08/15 06:28:07;;;;;;;;;;;;;;;;;;5135663;28;19916;-85
2022/08/15 06:30:33;;;;;;;;;;;;;;;;;;5100850;28;19921;-83
2022/08/15 06:33:01;;;;;;;;;;;;;;;;;;5136879;28;20006;-84
2022/08/15 06:35:45;;;;;;;;;;;;;;;;;;5135906;28;19916;-86
2022/08/15 06:38:19;;;;;;;;;;;;;;;;;;5138224;28;19916;-87
2022/08/15 06:40:55;;;;;;;;;;;;;;;;;;5120871;28;20274;-83
2022/08/15 06:43:20;;;;;;;;;;;;;;;;;;5124425;28;20321;-83
2022/08/15 06:45:47;;;;;;;;;;;;;;;;;;5135939;28;19916;-84
2022/08/15 06:48:14;;;;;;;;;;;;;;;;;;5117664;28;19915;-84
2022/08/15 06:50:40;;;;;;;;;;;;;;;;;;5117670;28;19923;-84
2022/08/15 06:53:13;;;;;;;;;;;;;;;;;;5118031;28;19916;-82
2022/08/15 06:55:41;;;;;;;;;;;;;;;;;;5100234;28;19926;-83
2022/08/15 06:58:08;;;;;;;;;;;;;;;;;;5118668;28;19915;-86
2022/08/15 07:00:35;;;;;;;;;;;;;;;;;;5120717;28;19921;-86
2022/08/15 07:03:09;;;;;;;;;;;;;;;;;;5125411;28;19915;-85
2022/08/15 07:05:43;;;;;;;;;;;;;;;;;;5118738;28;19965;-85
2022/08/15 07:08:11;;;;;;;;;;;;;;;;;;5117441;28;20034;-88
2022/08/15 07:10:41;;;;;;;;;;;;;;;;;;5137014;27;20233;-86
2022/08/15 07:13:12;;;;;;;;;;;;;;;;;;5104637;27;19953;-86
2022/08/15 07:15:47;;;;;;;;;;;;;;;;;;5122218;27;19915;-86
2022/08/15 07:18:34;;;;;;;;;;;;;;;;;;5139012;27;19915;-85
2022/08/15 07:21:03;;;;;;;;;;;;;;;;;;5126347;27;20034;-86
2022/08/15 07:23:29;;;;;;;;;;;;;;;;;;5127902;27;19931;-86
2022/08/15 07:25:58;;;;;;;;;;;;;;;;;;5139482;27;19915;-87
2022/08/15 07:28:27;;;;;;;;;;;;;;;;;;5120238;27;19931;-85
2022/08/15 07:30:59;;;;;;;;;;;;;;;;;;5139010;27;20009;-87
2022/08/15 07:33:33;;;;;;;;;;;;;;;;;;5120650;27;19915;-85
2022/08/15 07:36:02;;;;;;;;;;;;;;;;;;5138745;27;19923;-86
2022/08/15 07:38:28;;;;;;;;;;;;;;;;;;5103457;27;19915;-86
2022/08/15 07:40:53;;;;;;;;;;;;;;;;;;5120903;27;19915;-85
2022/08/15 07:43:32;;;;;;;;;;;;;;;;;;5112444;27;20364;-85
2022/08/15 07:46:16;;;;;;;;;;;;;;;;;;5104643;27;20264;-84
2022/08/15 07:48:42;;;;;;;;;;;;;;;;;;5139561;27;19915;-85
2022/08/15 07:51:15;;;;;;;;;;;;;;;;;;5120871;27;20329;-85
2022/08/15 07:54:00;;;;;;;;;;;;;;;;;;5120067;27;19916;-85
2022/08/15 07:56:28;;;;;;;;;;;;;;;;;;5137662;27;19962;-85
2022/08/15 07:58:55;;;;;;;;;;;;;;;;;;5138131;27;19922;-87
2022/08/15 08:01:27;;;;;;;;;;;;;;;;;;5141923;27;19916;-85
2022/08/15 08:03:58;;;;;;;;;;;;;;;;;;5131847;27;19940;-86
2022/08/15 08:06:23;;;;;;;;;;;;;;;;;;5121732;27;19916;-86
2022/08/15 08:08:55;;;;;;;;;;;;;;;;;;5139404;27;19923;-84
2022/08/15 08:11:32;;;;;;;;;;;;;;;;;;5121296;27;19915;-83
2022/08/15 08:14:00;;;;;;;;;;;;;;;;;;5103212;27;20317;-84
2022/08/15 08:16:44;;;;;;;;;;;;;;;;;;5139097;27;19924;-84
2022/08/15 08:19:30;;;;;;;;;;;;;;;;;;5119402;27;19925;-86
2022/08/15 08:22:02;;;;;;;;;;;;;;;;;;5123739;27;19912;-85
2022/08/15 08:24:27;;;;;;;;;;;;;;;;;;5132061;27;20018;-84
2022/08/15 08:26:55;;;;;;;;;;;;;;;;;;5139484;27;19955;-85
2022/08/15 08:29:27;;;;;;;;;;;;;;;;;;5118900;27;19919;-84
2022/08/15 08:31:56;;;;;;;;;;;;;;;;;;5119002;27;19919;-84
2022/08/15 08:34:39;;;;;;;;;;;;;;;;;;5137524;27;19915;-85
2022/08/15 08:37:04;;;;;;;;;;;;;;;;;;5102169;27;20458;-84
2022/08/15 08:39:39;;;;;;;;;;;;;;;;;;5138278;27;19919;-84
2022/08/15 08:42:25;;;;;;;;;;;;;;;;;;5137796;27;19963;-84
2022/08/15 08:44:53;;;;;;;;;;;;;;;;;;5149109;27;19919;-84
2022/08/15 08:47:18;;;;;;;;;;;;;;;;;;5138362;27;19911;-84
2022/08/15 08:49:59;;;;;;;;;;;;;;;;;;5137671;27;20010;-84
2022/08/15 08:52:34;;;;;;;;;;;;;;;;;;5137541;27;20069;-84
2022/08/15 08:55:04;;;;;;;;;;;;;;;;;;5136786;27;19919;-84
2022/08/15 08:57:33;;;;;;;;;;;;;;;;;;5118861;27;19919;-84
2022/08/15 09:00:12;;;;;;;;;;;;;;;;;;5137233;27;19915;-84
2022/08/15 09:02:47;;;;;;;;;;;;;;;;;;5118506;27;20045;-85
2022/08/15 09:05:32;;;;;;;;;;;;;;;;;;5150645;27;19920;-84
2022/08/15 09:07:59;;;;;;;;;;;;;;;;;;5120578;27;19919;-83
2022/08/15 09:10:26;;;;;;;;;;;;;;;;;;5120639;27;19958;-83
2022/08/15 09:15:36;;;;;;;;;;;;;;;;;;5124148;27;19963;-83
2022/08/15 09:18:06;;;;;;;;;;;;;;;;;;5105076;27;19919;-84
2022/08/15 09:20:33;;;;;;;;;;;;;;;;;;5121474;27;19916;-84
2022/08/15 09:22:58;;;;;;;;;;;;;;;;;;5121406;27;19938;-82
2022/08/15 09:25:24;;;;;;;;;;;;;;;;;;5151323;27;20313;-84
2022/08/15 09:27:52;;;;;;;;;;;;;;;;;;5120927;27;19919;-84
2022/08/15 09:30:18;;;;;;;;;;;;;;;;;;5118341;27;20329;-84
2022/08/15 09:32:46;;;;;;;;;;;;;;;;;;5137116;27;19922;-84
2022/08/15 09:35:16;;;;;;;;;;;;;;;;;;5118177;27;20397;-83
2022/08/15 09:37:45;;;;;;;;;;;;;;;;;;5138969;27;19923;-83
2022/08/15 09:40:29;;;;;;;;;;;;;;;;;;5118005;27;20313;-84
2022/08/15 09:43:16;;;;;;;;;;;;;;;;;;5136761;27;19919;-84
2022/08/15 09:45:50;;;;;;;;;;;;;;;;;;5131470;27;19920;-82
2022/08/15 09:48:22;;;;;;;;;;;;;;;;;;5138679;27;19923;-83
2022/08/15 09:51:11;;;;;;;;;;;;;;;;;;5138152;27;19923;-83
2022/08/15 09:53:40;;;;;;;;;;;;;;;;;;5088056;27;20038;-83
2022/08/15 09:56:06;;;;;;;;;;;;;;;;;;5137015;27;19920;-83
2022/08/15 09:58:41;;;;;;;;;;;;;;;;;;5119403;27;19916;-83
2022/08/15 10:01:08;;;;;;;;;;;;;;;;;;5104012;27;19915;-84
2022/08/15 10:03:45;;;;;;;;;;;;;;;;;;5137208;27;20324;-84
2022/08/15 10:06:12;;;;;;;;;;;;;;;;;;5148150;27;19918;-83
2022/08/15 10:08:52;;;;;;;;;;;;;;;;;;5139307;27;20343;-84
2022/08/15 10:11:25;;;;;;;;;;;;;;;;;;5138052;27;19938;-83
2022/08/15 10:14:01;;;;;;;;;;;;;;;;;;5137384;27;19915;-83
2022/08/15 10:16:41;;;;;;;;;;;;;;;;;;5140063;27;19919;-83
2022/08/15 10:19:09;;;;;;;;;;;;;;;;;;5137690;28;19915;-83
2022/08/15 10:21:35;;;;;;;;;;;;;;;;;;5120759;28;19916;-83
2022/08/15 10:24:03;;;;;;;;;;;;;;;;;;5138362;28;19916;-82
2022/08/15 10:26:28;;;;;;;;;;;;;;;;;;5128796;28;19937;-83
2022/08/15 10:28:59;;;;;;;;;;;;;;;;;;5142697;28;20220;-83
2022/08/15 10:31:25;;;;;;;;;;;;;;;;;;5140144;28;19922;-83
2022/08/15 10:33:54;;;;;;;;;;;;;;;;;;5119330;28;19915;-81
2022/08/15 10:36:23;;;;;;;;;;;;;;;;;;5136540;28;19915;-84
2022/08/15 10:39:07;;;;;;;;;;;;;;;;;;5137349;28;19972;-83
2022/08/15 10:41:34;;;;;;;;;;;;;;;;;;5136672;28;19947;-83
2022/08/15 10:44:02;;;;;;;;;;;;;;;;;;5135964;28;20006;-83
2022/08/15 10:46:37;;;;;;;;;;;;;;;;;;5149067;27;19983;-85
2022/08/15 10:49:13;;;;;;;;;;;;;;;;;;5149380;27;19927;-84
2022/08/15 10:51:43;;;;;;;;;;;;;;;;;;5142348;27;19911;-85
2022/08/15 10:54:27;;;;;;;;;;;;;;;;;;5142260;27;19915;-85
2022/08/15 10:56:56;;;;;;;;;;;;;;;;;;5124098;27;19926;-85
2022/08/15 10:59:26;;;;;;;;;;;;;;;;;;5123081;27;19915;-84
2022/08/15 11:02:01;;;;;;;;;;;;;;;;;;5144167;27;19915;-84
2022/08/15 11:04:30;;;;;;;;;;;;;;;;;;5145955;27;19937;-83
2022/08/15 11:06:56;;;;;;;;;;;;;;;;;;5130906;27;19927;-83
2022/08/15 11:09:21;;;;;;;;;;;;;;;;;;5130435;27;19915;-85
2022/08/15 11:11:52;;;;;;;;;;;;;;;;;;5141382;27;19935;-85
2022/08/15 11:14:22;;;;;;;;;;;;;;;;;;5122286;27;19965;-85
2022/08/15 11:16:51;;;;;;;;;;;;;;;;;;5143538;27;19919;-83
2022/08/15 11:19:33;;;;;;;;;;;;;;;;;;5125967;27;20281;-84
2022/08/15 11:22:06;;;;;;;;;;;;;;;;;;5122882;27;19972;-82
2022/08/15 11:24:33;;;;;;;;;;;;;;;;;;5140245;27;19960;-81
2022/08/15 11:27:09;;;;;;;;;;;;;;;;;;5130104;27;19910;-82
2022/08/15 11:29:37;;;;;;;;;;;;;;;;;;5130063;27;19916;-82
2022/08/15 11:32:02;;;;;;;;;;;;;;;;;;5104234;27;19920;-85
2022/08/15 11:34:29;;;;;;;;;;;;;;;;;;5141227;27;20009;-85
2022/08/15 11:37:01;;;;;;;;;;;;;;;;;;5145587;27;19916;-84
2022/08/15 11:39:27;;;;;;;;;;;;;;;;;;5147563;27;19926;-84
2022/08/15 11:41:54;;;;;;;;;;;;;;;;;;5120733;27;19916;-84
2022/08/15 11:44:19;;;;;;;;;;;;;;;;;;5139442;27;19923;-84
2022/08/15 11:46:45;;;;;;;;;;;;;;;;;;5105429;27;19916;-84
2022/08/15 11:49:13;;;;;;;;;;;;;;;;;;5138515;27;19929;-86
2022/08/15 11:51:41;;;;;;;;;;;;;;;;;;5142043;27;19964;-85
2022/08/15 11:54:19;;;;;;;;;;;;;;;;;;5122350;27;19911;-83
2022/08/15 11:56:44;;;;;;;;;;;;;;;;;;5140507;27;19920;-83
2022/08/15 11:59:13;;;;;;;;;;;;;;;;;;5141250;27;19927;-83
2022/08/15 12:01:39;;;;;;;;;;;;;;;;;;5140026;27;20533;-83
2022/08/15 12:04:05;;;;;;;;;;;;;;;;;;5125932;27;19916;-83
2022/08/15 12:06:35;;;;;;;;;;;;;;;;;;5139378;27;20310;-83
2022/08/15 12:09:11;;;;;;;;;;;;;;;;;;5131036;27;19916;-83
2022/08/15 12:11:41;;;;;;;;;;;;;;;;;;5143521;27;20305;-84
2022/08/15 12:14:14;;;;;;;;;;;;;;;;;;5138593;27;19916;-84
2022/08/15 12:16:40;;;;;;;;;;;;;;;;;;5139288;27;19919;-84
2022/08/15 12:19:24;;;;;;;;;;;;;;;;;;5121352;27;20313;-84
2022/08/15 12:21:50;;;;;;;;;;;;;;;;;;5138562;27;19922;-84
2022/08/15 12:24:26;;;;;;;;;;;;;;;;;;5102667;27;19915;-84
2022/08/15 12:26:52;;;;;;;;;;;;;;;;;;5124989;27;19937;-84
2022/08/15 12:29:19;;;;;;;;;;;;;;;;;;5154894;27;19903;-83
2022/08/15 12:31:44;;;;;;;;;;;;;;;;;;5132764;27;20012;-83
2022/08/15 12:34:10;;;;;;;;;;;;;;;;;;5123227;27;20346;-83
2022/08/15 12:36:36;;;;;;;;;;;;;;;;;;5140045;27;19922;-84
2022/08/15 12:39:02;;;;;;;;;;;;;;;;;;5119423;27;20005;-84
2022/08/15 12:41:27;;;;;;;;;;;;;;;;;;5137748;27;20313;-84
2022/08/15 12:43:52;;;;;;;;;;;;;;;;;;5119864;27;19931;-84
2022/08/15 12:46:18;;;;;;;;;;;;;;;;;;5122152;27;19916;-83
2022/08/15 12:48:46;;;;;;;;;;;;;;;;;;5130539;27;19937;-83
2022/08/15 12:51:12;;;;;;;;;;;;;;;;;;5143557;27;19916;-84
2022/08/15 12:53:38;;;;;;;;;;;;;;;;;;5137905;27;19915;-81
2022/08/15 12:56:04;;;;;;;;;;;;;;;;;;5137174;27;19919;-84
2022/08/15 12:58:29;;;;;;;;;;;;;;;;;;5118630;27;19923;-84
2022/08/15 13:00:57;;;;;;;;;;;;;;;;;;5136903;27;19934;-88
2022/08/15 13:03:23;;;;;;;;;;;;;;;;;;5119859;27;19980;-85
2022/08/15 13:05:55;;;;;;;;;;;;;;;;;;5137579;27;19915;-86
2022/08/15 13:08:20;;;;;;;;;;;;;;;;;;5121054;27;20009;-86
2022/08/15 13:10:45;;;;;;;;;;;;;;;;;;5143082;27;19938;-86
2022/08/15 13:13:12;;;;;;;;;;;;;;;;;;5118957;27;19916;-87
2022/08/15 13:15:37;;;;;;;;;;;;;;;;;;5136700;27;19915;-85
2022/08/15 13:18:03;;;;;;;;;;;;;;;;;;5118247;27;19927;-85
2022/08/15 13:25:56;;;;;;;;;;;;;;;;;;5136871;27;19961;-88
2022/08/15 13:28:22;;;;;;;;;;;;;;;;;;5136997;27;19954;-90
2022/08/15 13:30:49;;;;;;;;;;;;;;;;;;5120612;27;19923;-85
2022/08/15 13:33:15;;;;;;;;;;;;;;;;;;5106310;27;19926;-86
2022/08/15 13:35:40;;;;;;;;;;;;;;;;;;5119953;27;19915;-86
2022/08/15 13:38:07;;;;;;;;;;;;;;;;;;5118227;27;19934;-85
2022/08/15 13:40:32;;;;;;;;;;;;;;;;;;5136298;27;19920;-88
2022/08/15 13:42:59;;;;;;;;;;;;;;;;;;5117736;27;20048;-85
2022/08/15 13:45:25;;;;;;;;;;;;;;;;;;5118173;27;19923;-87
2022/08/15 13:47:54;;;;;;;;;;;;;;;;;;5118010;27;19916;-88
2022/08/15 13:50:19;;;;;;;;;;;;;;;;;;5107179;27;19915;-87
2022/08/15 13:52:45;;;;;;;;;;;;;;;;;;5122452;27;19922;-88
2022/08/15 13:55:10;;;;;;;;;;;;;;;;;;5118760;27;20388;-87
2022/08/15 13:57:36;;;;;;;;;;;;;;;;;;5117779;27;20352;-86
2022/08/15 14:00:02;;;;;;;;;;;;;;;;;;5117974;27;20209;-88
2022/08/15 14:02:27;;;;;;;;;;;;;;;;;;5117223;27;20006;-88
2022/08/15 14:04:54;;;;;;;;;;;;;;;;;;5118140;27;19957;-87
2022/08/15 14:07:19;;;;;;;;;;;;;;;;;;5136244;27;19921;-86
2022/08/15 14:09:44;;;;;;;;;;;;;;;;;;5119516;27;19945;-87
2022/08/15 14:12:17;;;;;;;;;;;;;;;;;;5119337;28;20009;-87
2022/08/15 14:14:42;;;;;;;;;;;;;;;;;;5137436;27;19968;-91
2022/08/15 14:17:08;;;;;;;;;;;;;;;;;;5135710;27;19943;-88
2022/08/15 14:19:33;;;;;;;;;;;;;;;;;;5117091;27;20317;-86
2022/08/15 14:22:02;;;;;;;;;;;;;;;;;;5117363;28;19921;-88
2022/08/15 14:24:27;;;;;;;;;;;;;;;;;;5135629;28;19930;-90
2022/08/15 14:26:52;;;;;;;;;;;;;;;;;;5136189;28;19919;-84
2022/08/15 14:29:22;;;;;;;;;;;;;;;;;;5117698;28;19964;-84
2022/08/15 14:31:49;;;;;;;;;;;;;;;;;;5124566;28;19919;-87
2022/08/15 14:34:14;;;;;;;;;;;;;;;;;;5137779;28;19935;-88
2022/08/15 14:36:41;;;;;;;;;;;;;;;;;;5135603;28;19999;-84
2022/08/15 14:39:06;;;;;;;;;;;;;;;;;;5100415;28;19920;-87
2022/08/15 14:41:32;;;;;;;;;;;;;;;;;;5117183;28;19915;-87
2022/08/15 14:43:58;;;;;;;;;;;;;;;;;;5135534;28;20317;-88
2022/08/15 14:46:23;;;;;;;;;;;;;;;;;;5117301;28;20017;-87
2022/08/15 14:48:52;;;;;;;;;;;;;;;;;;5117317;28;20296;-86
2022/08/15 14:51:21;;;;;;;;;;;;;;;;;;5122503;28;19999;-88
2022/08/15 14:53:46;;;;;;;;;;;;;;;;;;5139482;28;19960;-87
2022/08/15 14:56:14;;;;;;;;;;;;;;;;;;5116625;28;19985;-85
2022/08/15 14:58:39;;;;;;;;;;;;;;;;;;5135632;28;19964;-87
2022/08/15 15:01:05;;;;;;;;;;;;;;;;;;5135295;28;19993;-87
2022/08/15 15:03:30;;;;;;;;;;;;;;;;;;5135860;28;19916;-88
2022/08/15 15:05:56;;;;;;;;;;;;;;;;;;5117560;28;20055;-88
2022/08/15 15:08:22;;;;;;;;;;;;;;;;;;5117397;28;19951;-87
2022/08/15 15:10:47;;;;;;;;;;;;;;;;;;5137670;28;20259;-86
2022/08/15 15:13:14;;;;;;;;;;;;;;;;;;5142458;28;20337;-87
2022/08/15 15:15:49;;;;;;;;;;;;;;;;;;5135517;28;19919;-89
2022/08/15 15:18:15;;;;;;;;;;;;;;;;;;5135866;28;19955;-88
2022/08/15 15:20:41;;;;;;;;;;;;;;;;;;5135352;28;19915;-85
2022/08/15 15:23:06;;;;;;;;;;;;;;;;;;5099732;28;19968;-86
2022/08/15 15:25:32;;;;;;;;;;;;;;;;;;5139283;28;19915;-85
2022/08/15 15:27:57;;;;;;;;;;;;;;;;;;5130453;28;19941;-87
2022/08/15 15:30:22;;;;;;;;;;;;;;;;;;5124940;28;20002;-88
2022/08/15 15:32:48;;;;;;;;;;;;;;;;;;5127348;27;20027;-87
2022/08/15 15:35:13;;;;;;;;;;;;;;;;;;5144375;27;20393;-85
2022/08/15 15:37:39;;;;;;;;;;;;;;;;;;5139198;27;19916;-84
2022/08/15 15:40:06;;;;;;;;;;;;;;;;;;5138919;27;19915;-86
2022/08/15 15:42:31;;;;;;;;;;;;;;;;;;5120642;27;20312;-86
2022/08/15 15:44:57;;;;;;;;;;;;;;;;;;5138566;27;20009;-86
2022/08/15 15:47:22;;;;;;;;;;;;;;;;;;5138474;27;19922;-87
2022/08/15 15:49:47;;;;;;;;;;;;;;;;;;5138299;27;19957;-86
2022/08/15 15:52:14;;;;;;;;;;;;;;;;;;5139034;27;19921;-86
2022/08/15 15:54:39;;;;;;;;;;;;;;;;;;5120196;27;19957;-86
2022/08/15 15:57:05;;;;;;;;;;;;;;;;;;5138199;27;20325;-85
2022/08/15 15:59:30;;;;;;;;;;;;;;;;;;5138250;27;19916;-85
2022/08/15 16:01:56;;;;;;;;;;;;;;;;;;5138399;27;20006;-86
2022/08/15 16:04:21;;;;;;;;;;;;;;;;;;5120073;27;19915;-84
2022/08/15 16:06:46;;;;;;;;;;;;;;;;;;5119820;27;19984;-86
2022/08/15 16:09:12;;;;;;;;;;;;;;;;;;5138651;27;20308;-86
2022/08/15 16:11:43;;;;;;;;;;;;;;;;;;5120133;27;19916;-86
2022/08/15 16:14:27;;;;;;;;;;;;;;;;;;5132680;27;19920;-86
2022/08/15 16:16:52;;;;;;;;;;;;;;;;;;5138222;27;19916;-86
2022/08/15 16:19:24;;;;;;;;;;;;;;;;;;5137860;27;19938;-85
2022/08/15 16:22:02;;;;;;;;;;;;;;;;;;5119523;27;19922;-86
2022/08/15 16:24:44;;;;;;;;;;;;;;;;;;5137830;27;19951;-84
2022/08/15 16:27:13;;;;;;;;;;;;;;;;;;5119969;27;19972;-87
2022/08/15 16:29:44;;;;;;;;;;;;;;;;;;5137916;27;19923;-85
2022/08/15 16:32:13;;;;;;;;;;;;;;;;;;5140139;27;20090;-84
2022/08/15 16:34:46;;;;;;;;;;;;;;;;;;5131086;27;19964;-85
2022/08/15 16:37:13;;;;;;;;;;;;;;;;;;5119714;27;19988;-88
2022/08/15 16:39:51;;;;;;;;;;;;;;;;;;5102507;27;19915;-84
2022/08/15 16:42:31;;;;;;;;;;;;;;;;;;5137421;27;19919;-85
2022/08/15 16:44:57;;;;;;;;;;;;;;;;;;5102721;27;19923;-86
2022/08/15 16:47:42;;;;;;;;;;;;;;;;;;5119488;27;19915;-85
2022/08/15 16:50:20;;;;;;;;;;;;;;;;;;5102379;27;19919;-85
2022/08/15 16:52:57;;;;;;;;;;;;;;;;;;5139864;27;19918;-85
2022/08/15 16:55:35;;;;;;;;;;;;;;;;;;5124008;28;19919;-85
2022/08/15 16:58:00;;;;;;;;;;;;;;;;;;5115722;28;19916;-85
2022/08/15 17:00:33;;;;;;;;;;;;;;;;;;5115015;28;20290;-84
2022/08/15 17:03:11;;;;;;;;;;;;;;;;;;5115138;28;19923;-84
2022/08/15 17:05:56;;;;;;;;;;;;;;;;;;5116580;28;19932;-84
2022/08/15 17:08:40;;;;;;;;;;;;;;;;;;5116174;28;20344;-84
2022/08/15 17:11:16;;;;;;;;;;;;;;;;;;5115985;28;20269;-85
2022/08/15 17:14:01;;;;;;;;;;;;;;;;;;5122432;28;19942;-85